sensor_id;sensor_type;location;lat;lon;timestamp;temperature;humidity
29501;DHT22;16450;50.288;10.966;2023-07-22T00:01:49;15.10;99.00
29501;DHT22;16450;50.288;10.966;2023-07-22T00:04:50;15.10;99.00
29501;DHT22;16450;50.288;10.966;2023-07-22T00:07:54;15.10;99.10
29501;DHT22;16450;50.288;10.966;2023-07-22T00:10:55;15.10;99.10
29501;DHT22;16450;50.288;10.966;2023-07-22T00:13:57;15.00;99.10
29501;DHT22;16450;50.288;10.966;2023-07-22T00:17:00;15.10;99.20
29501;DHT22;16450;50.288;10.966;2023-07-22T00:20:02;15.10;99.30
29501;DHT22;16450;50.288;10.966;2023-07-22T00:23:06;15.10;99.30
29501;DHT22;16450;50.288;10.966;2023-07-22T00:26:07;15.10;99.40
29501;DHT22;16450;50.288;10.966;2023-07-22T00:29:11;15.10;99.30
29501;DHT22;16450;50.288;10.966;2023-07-22T00:32:12;15.10;99.30
29501;DHT22;16450;50.288;10.966;2023-07-22T00:35:15;15.10;99.40
29501;DHT22;16450;50.288;10.966;2023-07-22T00:38:17;15.10;99.40
29501;DHT22;16450;50.288;10.966;2023-07-22T00:41:20;15.10;99.40
29501;DHT22;16450;50.288;10.966;2023-07-22T00:44:22;15.00;99.40
29501;DHT22;16450;50.288;10.966;2023-07-22T00:47:24;15.00;99.40
29501;DHT22;16450;50.288;10.966;2023-07-22T00:50:26;15.00;99.50
29501;DHT22;16450;50.288;10.966;2023-07-22T00:53:29;15.00;99.60
29501;DHT22;16450;50.288;10.966;2023-07-22T00:56:36;15.00;99.60
29501;DHT22;16450;50.288;10.966;2023-07-22T00:59:39;15.00;99.70
29501;DHT22;16450;50.288;10.966;2023-07-22T01:02:42;15.00;99.80
29501;DHT22;16450;50.288;10.966;2023-07-22T01:05:47;14.90;99.80
29501;DHT22;16450;50.288;10.966;2023-07-22T01:08:50;14.90;99.90
29501;DHT22;16450;50.288;10.966;2023-07-22T01:11:52;14.90;99.90
29501;DHT22;16450;50.288;10.966;2023-07-22T01:14:54;15.00;99.90
29501;DHT22;16450;50.288;10.966;2023-07-22T01:17:56;15.00;99.90
29501;DHT22;16450;50.288;10.966;2023-07-22T01:21:03;14.90;99.90
29501;DHT22;16450;50.288;10.966;2023-07-22T01:24:06;15.00;99.90
29501;DHT22;16450;50.288;10.966;2023-07-22T01:27:08;14.90;99.90
29501;DHT22;16450;50.288;10.966;2023-07-22T01:30:11;14.90;99.80
29501;DHT22;16450;50.288;10.966;2023-07-22T01:33:13;14.90;99.70
29501;DHT22;16450;50.288;10.966;2023-07-22T01:36:15;14.80;99.60
29501;DHT22;16450;50.288;10.966;2023-07-22T01:39:17;14.80;99.50
29501;DHT22;16450;50.288;10.966;2023-07-22T01:42:23;14.70;99.40
29501;DHT22;16450;50.288;10.966;2023-07-22T01:45:25;14.70;99.30
29501;DHT22;16450;50.288;10.966;2023-07-22T01:48:27;14.60;99.30
29501;DHT22;16450;50.288;10.966;2023-07-22T01:51:29;14.50;99.40
29501;DHT22;16450;50.288;10.966;2023-07-22T01:54:32;14.50;99.50
29501;DHT22;16450;50.288;10.966;2023-07-22T01:57:34;14.30;99.50
29501;DHT22;16450;50.288;10.966;2023-07-22T02:00:36;14.40;99.60
29501;DHT22;16450;50.288;10.966;2023-07-22T02:03:38;14.40;99.60
29501;DHT22;16450;50.288;10.966;2023-07-22T02:06:40;14.30;99.50
29501;DHT22;16450;50.288;10.966;2023-07-22T02:09:42;14.30;99.50
29501;DHT22;16450;50.288;10.966;2023-07-22T02:12:43;14.20;99.50
29501;DHT22;16450;50.288;10.966;2023-07-22T02:15:45;14.20;99.40
29501;DHT22;16450;50.288;10.966;2023-07-22T02:18:48;14.20;99.50
29501;DHT22;16450;50.288;10.966;2023-07-22T02:21:50;14.00;99.40
29501;DHT22;16450;50.288;10.966;2023-07-22T02:24:52;14.10;99.50
29501;DHT22;16450;50.288;10.966;2023-07-22T02:27:54;14.00;99.60
29501;DHT22;16450;50.288;10.966;2023-07-22T02:31:01;14.00;99.70
29501;DHT22;16450;50.288;10.966;2023-07-22T02:34:04;13.90;99.70
29501;DHT22;16450;50.288;10.966;2023-07-22T02:37:05;13.90;99.70
29501;DHT22;16450;50.288;10.966;2023-07-22T02:40:08;13.90;99.70
29501;DHT22;16450;50.288;10.966;2023-07-22T02:43:12;13.90;99.70
29501;DHT22;16450;50.288;10.966;2023-07-22T02:46:14;13.80;99.60
29501;DHT22;16450;50.288;10.966;2023-07-22T02:49:16;13.80;99.50
29501;DHT22;16450;50.288;10.966;2023-07-22T02:52:18;13.70;99.30
29501;DHT22;16450;50.288;10.966;2023-07-22T02:55:20;13.70;99.30
29501;DHT22;16450;50.288;10.966;2023-07-22T02:58:22;13.70;99.30
29501;DHT22;16450;50.288;10.966;2023-07-22T03:01:23;13.60;99.20
29501;DHT22;16450;50.288;10.966;2023-07-22T03:04:26;13.60;99.20
29501;DHT22;16450;50.288;10.966;2023-07-22T03:07:28;13.60;99.20
29501;DHT22;16450;50.288;10.966;2023-07-22T03:10:30;13.50;99.10
29501;DHT22;16450;50.288;10.966;2023-07-22T03:13:32;13.40;99.10
29501;DHT22;16450;50.288;10.966;2023-07-22T03:16:35;13.40;99.10
29501;DHT22;16450;50.288;10.966;2023-07-22T03:19:37;13.30;99.10
29501;DHT22;16450;50.288;10.966;2023-07-22T03:22:39;13.30;99.10
29501;DHT22;16450;50.288;10.966;2023-07-22T03:25:41;13.20;99.20
29501;DHT22;16450;50.288;10.966;2023-07-22T03:28:43;13.20;99.30
29501;DHT22;16450;50.288;10.966;2023-07-22T03:31:45;13.10;99.30
29501;DHT22;16450;50.288;10.966;2023-07-22T03:34:47;13.10;99.30
29501;DHT22;16450;50.288;10.966;2023-07-22T03:37:49;13.00;99.30
29501;DHT22;16450;50.288;10.966;2023-07-22T03:40:50;13.00;99.30
29501;DHT22;16450;50.288;10.966;2023-07-22T03:43:54;13.00;99.30
29501;DHT22;16450;50.288;10.966;2023-07-22T03:46:56;13.00;99.30
29501;DHT22;16450;50.288;10.966;2023-07-22T03:49:59;13.00;99.40
29501;DHT22;16450;50.288;10.966;2023-07-22T03:53:01;12.90;99.40
29501;DHT22;16450;50.288;10.966;2023-07-22T03:56:03;12.80;99.40
29501;DHT22;16450;50.288;10.966;2023-07-22T03:59:05;12.80;99.50
29501;DHT22;16450;50.288;10.966;2023-07-22T04:02:07;12.80;99.50
29501;DHT22;16450;50.288;10.966;2023-07-22T04:05:09;12.80;99.60
29501;DHT22;16450;50.288;10.966;2023-07-22T04:08:11;12.80;99.70
29501;DHT22;16450;50.288;10.966;2023-07-22T04:11:13;12.80;99.70
29501;DHT22;16450;50.288;10.966;2023-07-22T04:14:15;12.80;99.70
29501;DHT22;16450;50.288;10.966;2023-07-22T04:17:17;12.80;99.70
29501;DHT22;16450;50.288;10.966;2023-07-22T04:20:19;12.70;99.70
29501;DHT22;16450;50.288;10.966;2023-07-22T04:23:21;12.70;99.70
29501;DHT22;16450;50.288;10.966;2023-07-22T04:26:23;12.70;99.80
29501;DHT22;16450;50.288;10.966;2023-07-22T04:29:27;12.70;99.80
29501;DHT22;16450;50.288;10.966;2023-07-22T04:32:29;12.70;99.80
29501;DHT22;16450;50.288;10.966;2023-07-22T04:35:37;12.70;99.90
29501;DHT22;16450;50.288;10.966;2023-07-22T04:38:40;12.70;99.90
29501;DHT22;16450;50.288;10.966;2023-07-22T04:41:42;12.80;99.90
29501;DHT22;16450;50.288;10.966;2023-07-22T04:44:44;12.80;99.90
29501;DHT22;16450;50.288;10.966;2023-07-22T04:47:46;12.70;99.90
29501;DHT22;16450;50.288;10.966;2023-07-22T04:50:50;12.80;99.90
29501;DHT22;16450;50.288;10.966;2023-07-22T04:53:52;12.90;99.90
29501;DHT22;16450;50.288;10.966;2023-07-22T04:56:54;12.90;99.90
29501;DHT22;16450;50.288;10.966;2023-07-22T04:59:56;13.00;99.90
29501;DHT22;16450;50.288;10.966;2023-07-22T05:02:58;13.00;99.90
29501;DHT22;16450;50.288;10.966;2023-07-22T05:06:00;13.00;99.90
29501;DHT22;16450;50.288;10.966;2023-07-22T05:09:03;13.10;99.90
29501;DHT22;16450;50.288;10.966;2023-07-22T05:12:05;13.10;99.90
29501;DHT22;16450;50.288;10.966;2023-07-22T05:15:12;13.10;99.90
29501;DHT22;16450;50.288;10.966;2023-07-22T05:18:14;13.20;99.90
29501;DHT22;16450;50.288;10.966;2023-07-22T05:21:16;13.20;99.90
29501;DHT22;16450;50.288;10.966;2023-07-22T05:24:18;13.40;99.90
29501;DHT22;16450;50.288;10.966;2023-07-22T05:27:20;13.50;99.90
29501;DHT22;16450;50.288;10.966;2023-07-22T05:30:21;13.60;99.90
29501;DHT22;16450;50.288;10.966;2023-07-22T05:33:36;13.90;99.90
29501;DHT22;16450;50.288;10.966;2023-07-22T05:36:39;14.30;99.90
29501;DHT22;16450;50.288;10.966;2023-07-22T05:39:41;14.70;99.90
29501;DHT22;16450;50.288;10.966;2023-07-22T05:42:43;15.20;99.90
29501;DHT22;16450;50.288;10.966;2023-07-22T05:45:45;15.60;99.90
29501;DHT22;16450;50.288;10.966;2023-07-22T05:48:47;16.10;99.90
29501;DHT22;16450;50.288;10.966;2023-07-22T05:51:49;16.50;99.90
29501;DHT22;16450;50.288;10.966;2023-07-22T05:54:51;17.00;99.90
29501;DHT22;16450;50.288;10.966;2023-07-22T05:57:53;17.20;99.90
29501;DHT22;16450;50.288;10.966;2023-07-22T06:00:54;17.40;99.90
29501;DHT22;16450;50.288;10.966;2023-07-22T06:03:57;17.50;99.90
29501;DHT22;16450;50.288;10.966;2023-07-22T06:06:59;17.60;99.90
29501;DHT22;16450;50.288;10.966;2023-07-22T06:10:01;17.70;99.90
29501;DHT22;16450;50.288;10.966;2023-07-22T06:13:04;17.70;99.90
29501;DHT22;16450;50.288;10.966;2023-07-22T06:16:05;17.90;99.90
29501;DHT22;16450;50.288;10.966;2023-07-22T06:19:07;18.30;99.90
29501;DHT22;16450;50.288;10.966;2023-07-22T06:22:09;18.70;99.90
29501;DHT22;16450;50.288;10.966;2023-07-22T06:25:11;19.20;99.90
29501;DHT22;16450;50.288;10.966;2023-07-22T06:28:15;19.70;99.90
29501;DHT22;16450;50.288;10.966;2023-07-22T06:31:16;20.20;99.90
29501;DHT22;16450;50.288;10.966;2023-07-22T06:34:20;20.60;99.90
29501;DHT22;16450;50.288;10.966;2023-07-22T06:37:22;21.10;99.90
29501;DHT22;16450;50.288;10.966;2023-07-22T06:40:25;21.50;99.50
29501;DHT22;16450;50.288;10.966;2023-07-22T06:43:27;21.70;98.50
29501;DHT22;16450;50.288;10.966;2023-07-22T06:46:29;21.90;97.90
29501;DHT22;16450;50.288;10.966;2023-07-22T06:49:31;21.90;97.80
29501;DHT22;16450;50.288;10.966;2023-07-22T06:52:33;21.90;97.30
29501;DHT22;16450;50.288;10.966;2023-07-22T06:55:35;21.90;96.80
29501;DHT22;16450;50.288;10.966;2023-07-22T06:58:38;21.90;95.90
29501;DHT22;16450;50.288;10.966;2023-07-22T07:01:40;21.80;95.30
29501;DHT22;16450;50.288;10.966;2023-07-22T07:04:43;21.60;94.80
29501;DHT22;16450;50.288;10.966;2023-07-22T07:07:45;21.30;94.90
29501;DHT22;16450;50.288;10.966;2023-07-22T07:10:47;21.00;94.70
29501;DHT22;16450;50.288;10.966;2023-07-22T07:13:49;20.80;95.20
29501;DHT22;16450;50.288;10.966;2023-07-22T07:16:51;20.60;95.80
29501;DHT22;16450;50.288;10.966;2023-07-22T07:19:53;20.70;96.20
29501;DHT22;16450;50.288;10.966;2023-07-22T07:22:54;20.70;95.90
29501;DHT22;16450;50.288;10.966;2023-07-22T07:25:56;20.80;96.40
29501;DHT22;16450;50.288;10.966;2023-07-22T07:28:58;21.00;96.70
29501;DHT22;16450;50.288;10.966;2023-07-22T07:32:00;21.30;96.90
29501;DHT22;16450;50.288;10.966;2023-07-22T07:35:02;21.60;97.00
29501;DHT22;16450;50.288;10.966;2023-07-22T07:38:05;22.00;97.10
29501;DHT22;16450;50.288;10.966;2023-07-22T07:41:08;22.40;96.90
29501;DHT22;16450;50.288;10.966;2023-07-22T07:44:10;22.80;96.40
29501;DHT22;16450;50.288;10.966;2023-07-22T07:47:12;23.20;95.40
29501;DHT22;16450;50.288;10.966;2023-07-22T07:50:14;23.50;95.00
29501;DHT22;16450;50.288;10.966;2023-07-22T07:53:15;23.70;93.40
29501;DHT22;16450;50.288;10.966;2023-07-22T07:56:18;23.70;92.10
29501;DHT22;16450;50.288;10.966;2023-07-22T07:59:20;23.70;91.80
29501;DHT22;16450;50.288;10.966;2023-07-22T08:02:22;23.70;91.50
29501;DHT22;16450;50.288;10.966;2023-07-22T08:05:24;23.70;91.10
29501;DHT22;16450;50.288;10.966;2023-07-22T08:08:25;23.60;91.10
29501;DHT22;16450;50.288;10.966;2023-07-22T08:11:27;23.70;90.90
29501;DHT22;16450;50.288;10.966;2023-07-22T08:14:30;23.80;91.40
29501;DHT22;16450;50.288;10.966;2023-07-22T08:17:32;23.90;91.00
29501;DHT22;16450;50.288;10.966;2023-07-22T08:20:34;24.10;91.00
29501;DHT22;16450;50.288;10.966;2023-07-22T08:23:36;24.40;90.60
29501;DHT22;16450;50.288;10.966;2023-07-22T08:26:38;24.50;88.60
29501;DHT22;16450;50.288;10.966;2023-07-22T08:29:40;24.60;88.50
29501;DHT22;16450;50.288;10.966;2023-07-22T08:32:42;24.70;85.90
29501;DHT22;16450;50.288;10.966;2023-07-22T08:35:48;24.80;85.60
29501;DHT22;16450;50.288;10.966;2023-07-22T08:38:49;24.90;84.60
29501;DHT22;16450;50.288;10.966;2023-07-22T08:41:52;25.10;83.90
29501;DHT22;16450;50.288;10.966;2023-07-22T08:44:57;25.20;82.10
29501;DHT22;16450;50.288;10.966;2023-07-22T08:48:08;25.30;81.00
29501;DHT22;16450;50.288;10.966;2023-07-22T08:51:15;25.30;75.30
29501;DHT22;16450;50.288;10.966;2023-07-22T08:54:18;25.20;73.80
29501;DHT22;16450;50.288;10.966;2023-07-22T08:57:22;25.20;76.90
29501;DHT22;16450;50.288;10.966;2023-07-22T09:00:25;25.20;76.10
29501;DHT22;16450;50.288;10.966;2023-07-22T09:03:27;25.30;77.50
29501;DHT22;16450;50.288;10.966;2023-07-22T09:06:30;25.30;76.90
29501;DHT22;16450;50.288;10.966;2023-07-22T09:09:33;25.40;77.20
29501;DHT22;16450;50.288;10.966;2023-07-22T09:12:36;25.60;76.20
29501;DHT22;16450;50.288;10.966;2023-07-22T09:15:45;25.70;73.60
29501;DHT22;16450;50.288;10.966;2023-07-22T09:18:47;25.60;70.10
29501;DHT22;16450;50.288;10.966;2023-07-22T09:21:49;25.40;68.20
29501;DHT22;16450;50.288;10.966;2023-07-22T09:24:51;25.10;67.70
29501;DHT22;16450;50.288;10.966;2023-07-22T09:27:58;24.90;67.20
29501;DHT22;16450;50.288;10.966;2023-07-22T09:31:04;24.60;66.30
29501;DHT22;16450;50.288;10.966;2023-07-22T09:34:09;24.40;65.90
29501;DHT22;16450;50.288;10.966;2023-07-22T09:37:11;24.20;67.60
29501;DHT22;16450;50.288;10.966;2023-07-22T09:40:25;24.10;70.90
29501;DHT22;16450;50.288;10.966;2023-07-22T09:43:29;24.10;69.30
29501;DHT22;16450;50.288;10.966;2023-07-22T09:46:32;24.20;69.00
29501;DHT22;16450;50.288;10.966;2023-07-22T09:49:40;24.20;69.20
29501;DHT22;16450;50.288;10.966;2023-07-22T09:52:48;24.10;69.00
29501;DHT22;16450;50.288;10.966;2023-07-22T09:55:52;24.10;67.10
29501;DHT22;16450;50.288;10.966;2023-07-22T09:58:55;24.20;67.80
29501;DHT22;16450;50.288;10.966;2023-07-22T10:01:57;24.10;69.00
29501;DHT22;16450;50.288;10.966;2023-07-22T10:05:03;24.10;68.00
29501;DHT22;16450;50.288;10.966;2023-07-22T10:08:06;24.00;68.00
29501;DHT22;16450;50.288;10.966;2023-07-22T10:11:09;23.90;68.50
29501;DHT22;16450;50.288;10.966;2023-07-22T10:14:12;23.80;67.30
29501;DHT22;16450;50.288;10.966;2023-07-22T10:17:16;23.70;66.80
29501;DHT22;16450;50.288;10.966;2023-07-22T10:20:19;23.50;68.40
29501;DHT22;16450;50.288;10.966;2023-07-22T10:23:22;23.50;70.10
29501;DHT22;16450;50.288;10.966;2023-07-22T10:26:28;23.50;68.70
29501;DHT22;16450;50.288;10.966;2023-07-22T10:29:48;23.50;67.60
29501;DHT22;16450;50.288;10.966;2023-07-22T10:32:52;23.40;68.10
29501;DHT22;16450;50.288;10.966;2023-07-22T10:36:14;23.30;65.20
29501;DHT22;16450;50.288;10.966;2023-07-22T10:39:28;23.20;64.50
29501;DHT22;16450;50.288;10.966;2023-07-22T10:42:31;23.00;65.00
29501;DHT22;16450;50.288;10.966;2023-07-22T10:45:41;22.80;65.30
29501;DHT22;16450;50.288;10.966;2023-07-22T10:48:43;22.60;64.50
29501;DHT22;16450;50.288;10.966;2023-07-22T10:51:50;22.40;65.00
29501;DHT22;16450;50.288;10.966;2023-07-22T10:54:55;22.10;64.40
29501;DHT22;16450;50.288;10.966;2023-07-22T10:58:03;21.90;65.20
29501;DHT22;16450;50.288;10.966;2023-07-22T11:04:30;21.40;65.80
29501;DHT22;16450;50.288;10.966;2023-07-22T11:07:44;21.30;68.20
29501;DHT22;16450;50.288;10.966;2023-07-22T11:10:54;21.30;69.50
29501;DHT22;16450;50.288;10.966;2023-07-22T11:14:15;21.30;69.20
29501;DHT22;16450;50.288;10.966;2023-07-22T11:17:37;21.40;69.80
29501;DHT22;16450;50.288;10.966;2023-07-22T11:20:39;21.50;69.50
29501;DHT22;16450;50.288;10.966;2023-07-22T11:23:41;21.70;72.20
29501;DHT22;16450;50.288;10.966;2023-07-22T11:26:45;21.90;72.70
29501;DHT22;16450;50.288;10.966;2023-07-22T11:29:51;22.10;72.10
29501;DHT22;16450;50.288;10.966;2023-07-22T11:32:53;22.20;70.60
29501;DHT22;16450;50.288;10.966;2023-07-22T11:35:59;22.30;70.40
29501;DHT22;16450;50.288;10.966;2023-07-22T11:39:03;22.30;68.80
29501;DHT22;16450;50.288;10.966;2023-07-22T11:42:05;22.30;68.60
29501;DHT22;16450;50.288;10.966;2023-07-22T11:45:08;22.20;68.40
29501;DHT22;16450;50.288;10.966;2023-07-22T11:48:11;22.20;69.10
29501;DHT22;16450;50.288;10.966;2023-07-22T11:51:13;22.30;69.30
29501;DHT22;16450;50.288;10.966;2023-07-22T11:54:20;22.40;71.10
29501;DHT22;16450;50.288;10.966;2023-07-22T11:57:23;22.60;71.00
29501;DHT22;16450;50.288;10.966;2023-07-22T12:00:25;22.70;69.70
29501;DHT22;16450;50.288;10.966;2023-07-22T12:03:33;22.90;70.00
29501;DHT22;16450;50.288;10.966;2023-07-22T12:06:35;22.90;68.20
29501;DHT22;16450;50.288;10.966;2023-07-22T12:09:38;22.90;67.20
29501;DHT22;16450;50.288;10.966;2023-07-22T12:12:40;22.90;67.20
29501;DHT22;16450;50.288;10.966;2023-07-22T12:16:04;22.90;66.00
29501;DHT22;16450;50.288;10.966;2023-07-22T12:19:09;22.90;64.60
29501;DHT22;16450;50.288;10.966;2023-07-22T12:22:11;22.90;67.90
29501;DHT22;16450;50.288;10.966;2023-07-22T12:25:13;23.00;68.70
29501;DHT22;16450;50.288;10.966;2023-07-22T12:28:15;23.20;67.90
29501;DHT22;16450;50.288;10.966;2023-07-22T12:31:17;23.40;68.50
29501;DHT22;16450;50.288;10.966;2023-07-22T12:34:18;23.50;68.00
29501;DHT22;16450;50.288;10.966;2023-07-22T12:37:20;23.70;66.60
29501;DHT22;16450;50.288;10.966;2023-07-22T12:40:22;23.70;65.40
29501;DHT22;16450;50.288;10.966;2023-07-22T12:43:25;23.70;63.80
29501;DHT22;16450;50.288;10.966;2023-07-22T12:46:26;23.60;63.70
29501;DHT22;16450;50.288;10.966;2023-07-22T12:49:28;23.50;63.60
29501;DHT22;16450;50.288;10.966;2023-07-22T12:52:30;23.40;63.60
29501;DHT22;16450;50.288;10.966;2023-07-22T12:55:32;23.40;63.00
29501;DHT22;16450;50.288;10.966;2023-07-22T12:58:33;23.50;64.10
29501;DHT22;16450;50.288;10.966;2023-07-22T13:01:35;23.50;65.00
29501;DHT22;16450;50.288;10.966;2023-07-22T13:04:40;23.60;64.80
29501;DHT22;16450;50.288;10.966;2023-07-22T13:07:42;23.70;64.50
29501;DHT22;16450;50.288;10.966;2023-07-22T13:10:44;23.70;63.90
29501;DHT22;16450;50.288;10.966;2023-07-22T13:13:48;23.80;62.50
29501;DHT22;16450;50.288;10.966;2023-07-22T13:16:52;23.90;62.30
29501;DHT22;16450;50.288;10.966;2023-07-22T13:19:54;23.90;63.60
29501;DHT22;16450;50.288;10.966;2023-07-22T13:22:56;24.00;62.70
29501;DHT22;16450;50.288;10.966;2023-07-22T13:25:59;24.10;63.10
29501;DHT22;16450;50.288;10.966;2023-07-22T13:29:01;24.20;61.90
29501;DHT22;16450;50.288;10.966;2023-07-22T13:32:03;24.30;61.20
29501;DHT22;16450;50.288;10.966;2023-07-22T13:35:06;24.30;60.90
29501;DHT22;16450;50.288;10.966;2023-07-22T13:38:08;24.40;60.90
29501;DHT22;16450;50.288;10.966;2023-07-22T13:41:10;24.40;61.50
29501;DHT22;16450;50.288;10.966;2023-07-22T13:44:11;24.50;61.60
29501;DHT22;16450;50.288;10.966;2023-07-22T13:47:14;24.60;60.90
29501;DHT22;16450;50.288;10.966;2023-07-22T13:50:16;24.70;61.20
29501;DHT22;16450;50.288;10.966;2023-07-22T13:53:18;24.70;60.20
29501;DHT22;16450;50.288;10.966;2023-07-22T13:56:20;24.80;59.20
29501;DHT22;16450;50.288;10.966;2023-07-22T13:59:22;24.80;58.70
29501;DHT22;16450;50.288;10.966;2023-07-22T14:02:24;24.70;58.30
29501;DHT22;16450;50.288;10.966;2023-07-22T14:05:26;24.60;58.40
29501;DHT22;16450;50.288;10.966;2023-07-22T14:08:28;24.70;58.30
29501;DHT22;16450;50.288;10.966;2023-07-22T14:11:30;24.70;58.90
29501;DHT22;16450;50.288;10.966;2023-07-22T14:14:32;24.80;58.80
29501;DHT22;16450;50.288;10.966;2023-07-22T14:17:34;24.90;59.00
29501;DHT22;16450;50.288;10.966;2023-07-22T14:20:36;25.00;59.20
29501;DHT22;16450;50.288;10.966;2023-07-22T14:23:38;25.10;58.60
29501;DHT22;16450;50.288;10.966;2023-07-22T14:26:40;25.10;58.00
29501;DHT22;16450;50.288;10.966;2023-07-22T14:29:42;25.20;57.50
29501;DHT22;16450;50.288;10.966;2023-07-22T14:32:44;25.10;57.10
29501;DHT22;16450;50.288;10.966;2023-07-22T14:35:46;25.00;56.60
29501;DHT22;16450;50.288;10.966;2023-07-22T14:38:48;25.00;56.20
29501;DHT22;16450;50.288;10.966;2023-07-22T14:41:50;24.90;56.10
29501;DHT22;16450;50.288;10.966;2023-07-22T14:44:52;24.80;55.70
29501;DHT22;16450;50.288;10.966;2023-07-22T14:47:54;24.80;56.60
29501;DHT22;16450;50.288;10.966;2023-07-22T14:50:56;24.80;56.50
29501;DHT22;16450;50.288;10.966;2023-07-22T14:53:58;24.80;56.20
29501;DHT22;16450;50.288;10.966;2023-07-22T14:57:00;24.80;56.20
29501;DHT22;16450;50.288;10.966;2023-07-22T15:00:02;24.90;55.50
29501;DHT22;16450;50.288;10.966;2023-07-22T15:03:04;25.00;55.70
29501;DHT22;16450;50.288;10.966;2023-07-22T15:06:06;25.00;55.00
29501;DHT22;16450;50.288;10.966;2023-07-22T15:09:08;25.10;55.60
29501;DHT22;16450;50.288;10.966;2023-07-22T15:12:10;25.20;55.40
29501;DHT22;16450;50.288;10.966;2023-07-22T15:15:12;25.30;55.20
29501;DHT22;16450;50.288;10.966;2023-07-22T15:18:14;25.40;54.90
29501;DHT22;16450;50.288;10.966;2023-07-22T15:21:16;25.40;54.00
29501;DHT22;16450;50.288;10.966;2023-07-22T15:24:18;25.40;53.90
29501;DHT22;16450;50.288;10.966;2023-07-22T15:27:20;25.40;54.00
29501;DHT22;16450;50.288;10.966;2023-07-22T15:30:22;25.40;53.80
29501;DHT22;16450;50.288;10.966;2023-07-22T15:33:23;25.40;53.90
29501;DHT22;16450;50.288;10.966;2023-07-22T15:36:27;25.40;54.00
29501;DHT22;16450;50.288;10.966;2023-07-22T15:39:29;25.40;53.20
29501;DHT22;16450;50.288;10.966;2023-07-22T15:42:30;25.30;53.30
29501;DHT22;16450;50.288;10.966;2023-07-22T15:45:32;25.30;53.40
29501;DHT22;16450;50.288;10.966;2023-07-22T15:48:34;25.30;53.00
29501;DHT22;16450;50.288;10.966;2023-07-22T15:51:36;25.20;52.80
29501;DHT22;16450;50.288;10.966;2023-07-22T15:54:38;25.10;52.60
29501;DHT22;16450;50.288;10.966;2023-07-22T15:57:40;25.10;52.50
29501;DHT22;16450;50.288;10.966;2023-07-22T16:00:42;25.00;52.60
29501;DHT22;16450;50.288;10.966;2023-07-22T16:03:44;25.00;52.60
29501;DHT22;16450;50.288;10.966;2023-07-22T16:06:46;24.90;52.20
29501;DHT22;16450;50.288;10.966;2023-07-22T16:09:48;24.80;52.80
29501;DHT22;16450;50.288;10.966;2023-07-22T16:12:53;24.70;52.40
29501;DHT22;16450;50.288;10.966;2023-07-22T16:15:55;24.70;52.60
29501;DHT22;16450;50.288;10.966;2023-07-22T16:18:57;24.70;52.70
29501;DHT22;16450;50.288;10.966;2023-07-22T16:21:59;24.60;52.70
29501;DHT22;16450;50.288;10.966;2023-07-22T16:25:01;24.60;52.70
29501;DHT22;16450;50.288;10.966;2023-07-22T16:28:03;24.60;52.70
29501;DHT22;16450;50.288;10.966;2023-07-22T16:31:05;24.60;53.30
29501;DHT22;16450;50.288;10.966;2023-07-22T16:34:07;24.60;53.00
29501;DHT22;16450;50.288;10.966;2023-07-22T16:37:08;24.60;52.70
29501;DHT22;16450;50.288;10.966;2023-07-22T16:40:11;24.60;52.70
29501;DHT22;16450;50.288;10.966;2023-07-22T16:43:13;24.60;52.80
29501;DHT22;16450;50.288;10.966;2023-07-22T16:46:15;24.60;52.90
29501;DHT22;16450;50.288;10.966;2023-07-22T16:49:17;24.60;52.60
29501;DHT22;16450;50.288;10.966;2023-07-22T16:52:19;24.60;52.60
29501;DHT22;16450;50.288;10.966;2023-07-22T16:55:22;24.60;52.50
29501;DHT22;16450;50.288;10.966;2023-07-22T16:58:24;24.60;52.60
29501;DHT22;16450;50.288;10.966;2023-07-22T17:01:26;24.50;52.50
29501;DHT22;16450;50.288;10.966;2023-07-22T17:04:28;24.50;52.30
29501;DHT22;16450;50.288;10.966;2023-07-22T17:07:30;24.40;52.40
29501;DHT22;16450;50.288;10.966;2023-07-22T17:10:32;24.40;52.60
29501;DHT22;16450;50.288;10.966;2023-07-22T17:13:34;24.30;52.60
29501;DHT22;16450;50.288;10.966;2023-07-22T17:16:35;24.30;52.50
29501;DHT22;16450;50.288;10.966;2023-07-22T17:19:37;24.20;52.40
29501;DHT22;16450;50.288;10.966;2023-07-22T17:22:39;24.30;52.50
29501;DHT22;16450;50.288;10.966;2023-07-22T17:25:41;24.30;52.70
29501;DHT22;16450;50.288;10.966;2023-07-22T17:28:43;24.30;52.70
29501;DHT22;16450;50.288;10.966;2023-07-22T17:31:45;24.30;52.90
29501;DHT22;16450;50.288;10.966;2023-07-22T17:34:47;24.30;53.50
29501;DHT22;16450;50.288;10.966;2023-07-22T17:37:49;24.30;52.70
29501;DHT22;16450;50.288;10.966;2023-07-22T17:40:51;24.20;52.50
29501;DHT22;16450;50.288;10.966;2023-07-22T17:43:53;24.20;52.40
29501;DHT22;16450;50.288;10.966;2023-07-22T17:46:55;24.10;52.30
29501;DHT22;16450;50.288;10.966;2023-07-22T17:49:59;24.00;52.40
29501;DHT22;16450;50.288;10.966;2023-07-22T17:53:01;24.00;52.70
29501;DHT22;16450;50.288;10.966;2023-07-22T17:56:03;23.90;52.90
29501;DHT22;16450;50.288;10.966;2023-07-22T17:59:05;23.80;52.90
29501;DHT22;16450;50.288;10.966;2023-07-22T18:02:08;23.80;53.00
29501;DHT22;16450;50.288;10.966;2023-07-22T18:05:10;23.70;52.90
29501;DHT22;16450;50.288;10.966;2023-07-22T18:08:12;23.70;53.40
29501;DHT22;16450;50.288;10.966;2023-07-22T18:11:14;23.60;53.50
29501;DHT22;16450;50.288;10.966;2023-07-22T18:14:16;23.60;53.60
29501;DHT22;16450;50.288;10.966;2023-07-22T18:17:18;23.50;54.00
29501;DHT22;16450;50.288;10.966;2023-07-22T18:20:20;23.40;53.50
29501;DHT22;16450;50.288;10.966;2023-07-22T18:23:22;23.40;53.50
29501;DHT22;16450;50.288;10.966;2023-07-22T18:26:24;23.30;53.60
29501;DHT22;16450;50.288;10.966;2023-07-22T18:29:26;23.30;53.60
29501;DHT22;16450;50.288;10.966;2023-07-22T18:32:28;23.20;53.90
29501;DHT22;16450;50.288;10.966;2023-07-22T18:35:30;23.10;53.80
29501;DHT22;16450;50.288;10.966;2023-07-22T18:38:33;23.00;53.70
29501;DHT22;16450;50.288;10.966;2023-07-22T18:41:35;22.90;53.90
29501;DHT22;16450;50.288;10.966;2023-07-22T18:44:37;22.80;54.10
29501;DHT22;16450;50.288;10.966;2023-07-22T18:47:39;22.80;54.30
29501;DHT22;16450;50.288;10.966;2023-07-22T18:50:41;22.70;54.50
29501;DHT22;16450;50.288;10.966;2023-07-22T18:53:43;22.50;54.50
29501;DHT22;16450;50.288;10.966;2023-07-22T18:56:45;22.50;54.60
29501;DHT22;16450;50.288;10.966;2023-07-22T18:59:47;22.40;54.50